Terminal Aerodrome Forecast
Issued by NWS Corpus Christi, TX

Current Version | Previous Version | Text Only | Print | Product List | Glossary Off
Versions: 1 2 3 4 5 6 7 8 9 10 11 12

250
FTUS44 KCRP 281129
TAFCRP
TAF
KCRP 281129Z 2812/2912 VRB03KT P6SM FEW018
     FM281500 VRB03KT P6SM SCT025 SCT035
     FM281800 10012KT P6SM FEW040
     FM290500 VRB03KT P6SM FEW020 SCT250=

USA.gov is the U.S. government's official web portal to all federal, state and local government web resources and services.